메인 페이지
METAR-TAF:

METAR-TAF

공항 :

포트오브스페인, 트리니다드 섬, 트리니다드 토바고

위도: 10-37N, 경도: 061-21W, 고도: 12m

현재 날씨관측

예보는 50분 전, 23:00시(UTC)에 발표되었습니다.
6kt
온도 27°C
습도 70%
기압 1014 hPa
시정 10km 이상
고도 1800ft 상공 구름 조금

METAR: TTPP 012300Z 10006KT 9999 FEW018 27/21 Q1014 NOSIG

시각: 19:50 (23:50 UTC)

예보

예보는 1 시간 50분 전, 22:00시(UTC)에 발표되었습니다.
예보 대상 시간: 02일 00시부터 02일 24시까지 (UTC)
5kt
시정 10km 이상
고도 1600ft 상공 구름 조금
전환 중
02일 12시부터 02일 14시까지 (UTC)
동남동13kt
고도 2300ft 상공 구름 보통

TAF: TTPP 012200Z 0200/0224 09005KT 9999 FEW016 BECMG 0212/0214 12013KT SCT023

4,000개 이상의 공항 관측 자료 및 예보 (METAR 및 TAF 보고).

지도상에서 검색 가능한 기상관측소가 노란 점과 빨간 점으로 표시되어 있습니다.

기상관측소 명을 보려면 표시 위로 마우스를 이동하세요.

날씨 관측과 예보를 보려면 클릭하세요.

지도 변경 : 확대하려면 엑스 표시가 있는 녹색 버튼, 축소하려면 빼기 표시가 있는 녹색 버튼, 다음 페이지의 지도를 보려면 녹색 화살표를 클릭하세요.


METAR-TAF: